sensor_id;sensor_type;location;lat;lon;timestamp;pressure;altitude;pressure_sealevel;temperature;humidity
48968;BME280;46511;53.148;8.204;2022-07-06T00:04:10;102322.75;;;16.15;85.78
48968;BME280;46511;53.148;8.204;2022-07-06T00:07:04;102320.34;;;16.26;85.29
48968;BME280;46511;53.148;8.204;2022-07-06T00:10:24;102315.75;;;16.28;85.21
48968;BME280;46511;53.148;8.204;2022-07-06T00:13:08;102314.78;;;15.98;86.69
48968;BME280;46511;53.148;8.204;2022-07-06T00:15:36;102316.31;;;15.86;87.88
48968;BME280;46511;53.148;8.204;2022-07-06T00:18:03;102323.53;;;16.17;85.76
48968;BME280;46511;53.148;8.204;2022-07-06T00:20:31;102318.41;;;15.97;87.19
48968;BME280;46511;53.148;8.204;2022-07-06T00:22:58;102317.72;;;16.09;86.69
48968;BME280;46511;53.148;8.204;2022-07-06T00:25:25;102318.25;;;16.16;85.93
48968;BME280;46511;53.148;8.204;2022-07-06T00:27:54;102321.22;;;16.27;85.76
48968;BME280;46511;53.148;8.204;2022-07-06T00:30:21;102318.28;;;16.32;85.71
48968;BME280;46511;53.148;8.204;2022-07-06T00:32:49;102319.81;;;16.20;86.30
48968;BME280;46511;53.148;8.204;2022-07-06T00:35:16;102329.50;;;16.07;86.89
48968;BME280;46511;53.148;8.204;2022-07-06T00:37:43;102322.31;;;16.07;87.49
48968;BME280;46511;53.148;8.204;2022-07-06T00:40:13;102323.53;;;16.17;86.47
48968;BME280;46511;53.148;8.204;2022-07-06T00:42:45;102327.94;;;16.03;87.39
48968;BME280;46511;53.148;8.204;2022-07-06T00:45:14;102326.97;;;15.88;88.93
48968;BME280;46511;53.148;8.204;2022-07-06T00:47:47;102323.81;;;15.80;89.67
48968;BME280;46511;53.148;8.204;2022-07-06T00:50:16;102321.50;;;15.74;90.37
48968;BME280;46511;53.148;8.204;2022-07-06T00:53:00;102322.22;;;15.93;89.45
48968;BME280;46511;53.148;8.204;2022-07-06T00:55:29;102323.22;;;15.75;90.62
48968;BME280;46511;53.148;8.204;2022-07-06T00:58:02;102322.28;;;15.76;90.47
48968;BME280;46511;53.148;8.204;2022-07-06T01:00:30;102324.47;;;15.85;90.57
48968;BME280;46511;53.148;8.204;2022-07-06T01:02:58;102324.31;;;15.70;90.95
48968;BME280;46511;53.148;8.204;2022-07-06T01:05:26;102326.69;;;15.59;91.76
48968;BME280;46511;53.148;8.204;2022-07-06T01:07:55;102332.03;;;15.59;91.34
48968;BME280;46511;53.148;8.204;2022-07-06T01:10:23;102328.50;;;15.59;91.73
48968;BME280;46511;53.148;8.204;2022-07-06T01:12:52;102330.16;;;15.44;93.09
48968;BME280;46511;53.148;8.204;2022-07-06T01:15:20;102325.63;;;15.63;92.12
48968;BME280;46511;53.148;8.204;2022-07-06T01:17:49;102333.72;;;15.62;91.89
48968;BME280;46511;53.148;8.204;2022-07-06T01:20:21;102325.75;;;15.60;92.36
48968;BME280;46511;53.148;8.204;2022-07-06T01:22:50;102322.69;;;15.68;91.80
48968;BME280;46511;53.148;8.204;2022-07-06T01:25:19;102321.31;;;15.77;91.70
48968;BME280;46511;53.148;8.204;2022-07-06T01:27:47;102321.31;;;15.77;91.46
48968;BME280;46511;53.148;8.204;2022-07-06T01:30:17;102318.00;;;15.71;92.09
48968;BME280;46511;53.148;8.204;2022-07-06T01:32:46;102324.22;;;15.72;91.87
48968;BME280;46511;53.148;8.204;2022-07-06T01:35:13;102323.81;;;15.80;91.60
48968;BME280;46511;53.148;8.204;2022-07-06T01:37:41;102322.03;;;15.63;92.22
48968;BME280;46511;53.148;8.204;2022-07-06T01:40:09;102313.09;;;15.64;92.76
48968;BME280;46511;53.148;8.204;2022-07-06T01:42:38;102314.94;;;15.79;91.95
48968;BME280;46511;53.148;8.204;2022-07-06T01:45:08;102313.88;;;15.82;91.59
48968;BME280;46511;53.148;8.204;2022-07-06T01:47:36;102315.28;;;15.73;91.54
48968;BME280;46511;53.148;8.204;2022-07-06T01:50:07;102317.28;;;15.85;91.21
48968;BME280;46511;53.148;8.204;2022-07-06T01:52:35;102315.38;;;15.87;91.28
48968;BME280;46511;53.148;8.204;2022-07-06T01:55:03;102313.28;;;15.77;91.44
48968;BME280;46511;53.148;8.204;2022-07-06T01:57:30;102312.66;;;15.71;91.76
48968;BME280;46511;53.148;8.204;2022-07-06T01:59:57;102313.47;;;15.56;92.09
48968;BME280;46511;53.148;8.204;2022-07-06T02:02:26;102309.38;;;15.66;92.18
48968;BME280;46511;53.148;8.204;2022-07-06T02:04:53;102317.31;;;15.68;92.04
48968;BME280;46511;53.148;8.204;2022-07-06T02:07:20;102309.91;;;15.56;92.54
48968;BME280;46511;53.148;8.204;2022-07-06T02:09:48;102317.41;;;15.49;93.09
48968;BME280;46511;53.148;8.204;2022-07-06T02:12:15;102310.69;;;15.58;92.50
48968;BME280;46511;53.148;8.204;2022-07-06T02:14:42;102310.69;;;15.58;92.81
48968;BME280;46511;53.148;8.204;2022-07-06T02:17:09;102307.16;;;15.57;92.69
48968;BME280;46511;53.148;8.204;2022-07-06T02:19:37;102314.47;;;15.54;92.78
48968;BME280;46511;53.148;8.204;2022-07-06T02:22:04;102319.75;;;15.73;92.09
48968;BME280;46511;53.148;8.204;2022-07-06T02:24:32;102306.88;;;15.63;92.49
48968;BME280;46511;53.148;8.204;2022-07-06T02:26:59;102310.41;;;15.64;92.38
48968;BME280;46511;53.148;8.204;2022-07-06T02:29:27;102313.19;;;15.78;91.63
48968;BME280;46511;53.148;8.204;2022-07-06T02:31:56;102314.09;;;15.61;92.18
48968;BME280;46511;53.148;8.204;2022-07-06T02:34:23;102307.28;;;15.71;92.03
48968;BME280;46511;53.148;8.204;2022-07-06T02:36:51;102311.19;;;15.82;91.45
48968;BME280;46511;53.148;8.204;2022-07-06T02:39:19;102308.41;;;15.67;92.35
48968;BME280;46511;53.148;8.204;2022-07-06T02:41:46;102312.59;;;15.73;91.82
48968;BME280;46511;53.148;8.204;2022-07-06T02:44:14;102315.97;;;15.59;92.18
48968;BME280;46511;53.148;8.204;2022-07-06T02:46:42;102318.81;;;15.56;93.26
48968;BME280;46511;53.148;8.204;2022-07-06T02:49:12;102317.06;;;15.73;92.14
48968;BME280;46511;53.148;8.204;2022-07-06T02:51:39;102318.66;;;15.59;92.72
48968;BME280;46511;53.148;8.204;2022-07-06T02:54:07;102322.34;;;15.57;92.70
48968;BME280;46511;53.148;8.204;2022-07-06T02:56:38;102319.69;;;15.57;93.02
48968;BME280;46511;53.148;8.204;2022-07-06T02:59:05;102321.81;;;15.50;93.41
48968;BME280;46511;53.148;8.204;2022-07-06T03:01:34;102326.84;;;15.56;93.14
48968;BME280;46511;53.148;8.204;2022-07-06T03:04:03;102328.91;;;15.68;92.22
48968;BME280;46511;53.148;8.204;2022-07-06T03:06:30;102328.81;;;15.53;92.48
48968;BME280;46511;53.148;8.204;2022-07-06T03:09:02;102342.47;;;15.48;93.08
48968;BME280;46511;53.148;8.204;2022-07-06T03:11:32;102341.53;;;15.66;92.19
48968;BME280;46511;53.148;8.204;2022-07-06T03:14:04;102345.16;;;15.81;91.43
48968;BME280;46511;53.148;8.204;2022-07-06T03:16:33;102337.72;;;15.53;91.97
48968;BME280;46511;53.148;8.204;2022-07-06T03:19:01;102340.56;;;15.50;92.20
48968;BME280;46511;53.148;8.204;2022-07-06T03:21:28;102334.56;;;15.62;91.73
48968;BME280;46511;53.148;8.204;2022-07-06T03:23:55;102331.44;;;15.54;91.94
48968;BME280;46511;53.148;8.204;2022-07-06T03:26:23;102334.25;;;15.51;92.13
48968;BME280;46511;53.148;8.204;2022-07-06T03:28:50;102332.34;;;15.70;91.65
48968;BME280;46511;53.148;8.204;2022-07-06T03:31:18;102330.53;;;15.71;91.22
48968;BME280;46511;53.148;8.204;2022-07-06T03:33:45;102329.84;;;15.67;91.21
48968;BME280;46511;53.148;8.204;2022-07-06T03:36:13;102333.00;;;15.58;91.49
48968;BME280;46511;53.148;8.204;2022-07-06T03:38:40;102328.03;;;15.68;91.33
48968;BME280;46511;53.148;8.204;2022-07-06T03:41:07;102332.41;;;15.86;90.41
48968;BME280;46511;53.148;8.204;2022-07-06T03:43:34;102326.38;;;15.83;90.48
48968;BME280;46511;53.148;8.204;2022-07-06T03:46:01;102327.31;;;15.97;90.03
48968;BME280;46511;53.148;8.204;2022-07-06T03:48:29;102328.72;;;15.71;90.86
48968;BME280;46511;53.148;8.204;2022-07-06T03:50:58;102330.53;;;15.71;91.31
48968;BME280;46511;53.148;8.204;2022-07-06T03:53:25;102324.47;;;15.85;90.70
48968;BME280;46511;53.148;8.204;2022-07-06T03:55:53;102327.03;;;15.86;90.50
48968;BME280;46511;53.148;8.204;2022-07-06T03:58:38;102329.31;;;15.94;90.65
48968;BME280;46511;53.148;8.204;2022-07-06T04:01:06;102327.59;;;15.93;90.62
48968;BME280;46511;53.148;8.204;2022-07-06T04:03:33;102329.41;;;15.92;90.76
48968;BME280;46511;53.148;8.204;2022-07-06T04:06:00;102330.28;;;15.93;90.63
48968;BME280;46511;53.148;8.204;2022-07-06T04:08:28;102330.53;;;16.04;90.06
48968;BME280;46511;53.148;8.204;2022-07-06T04:10:57;102327.59;;;16.09;90.33
48968;BME280;46511;53.148;8.204;2022-07-06T04:13:26;102325.16;;;16.20;89.25
48968;BME280;46511;53.148;8.204;2022-07-06T04:15:53;102324.31;;;16.19;89.37
48968;BME280;46511;53.148;8.204;2022-07-06T04:18:20;102329.69;;;16.35;88.46
48968;BME280;46511;53.148;8.204;2022-07-06T04:20:48;102333.31;;;16.34;88.42
48968;BME280;46511;53.148;8.204;2022-07-06T04:23:15;102331.31;;;16.53;87.82
48968;BME280;46511;53.148;8.204;2022-07-06T04:25:43;102334.88;;;16.54;86.98
48968;BME280;46511;53.148;8.204;2022-07-06T04:28:10;102336.41;;;16.58;87.15
48968;BME280;46511;53.148;8.204;2022-07-06T04:30:37;102337.16;;;16.77;86.50
48968;BME280;46511;53.148;8.204;2022-07-06T04:33:04;102340.75;;;16.76;86.55
48968;BME280;46511;53.148;8.204;2022-07-06T04:35:31;102341.25;;;16.67;86.59
48968;BME280;46511;53.148;8.204;2022-07-06T04:37:58;102336.03;;;16.96;85.53
48968;BME280;46511;53.148;8.204;2022-07-06T04:40:26;102337.09;;;16.93;85.58
48968;BME280;46511;53.148;8.204;2022-07-06T04:42:54;102336.31;;;17.21;84.04
48968;BME280;46511;53.148;8.204;2022-07-06T04:45:21;102328.88;;;16.96;84.76
48968;BME280;46511;53.148;8.204;2022-07-06T04:47:50;102339.34;;;17.01;84.45
48968;BME280;46511;53.148;8.204;2022-07-06T04:50:18;102329.09;;;16.77;85.04
48968;BME280;46511;53.148;8.204;2022-07-06T04:52:49;102335.88;;;16.99;83.98
48968;BME280;46511;53.148;8.204;2022-07-06T04:55:16;102327.84;;;16.99;84.07
48968;BME280;46511;53.148;8.204;2022-07-06T04:57:43;102329.84;;;17.25;83.17
48968;BME280;46511;53.148;8.204;2022-07-06T05:00:10;102325.38;;;17.24;82.87
48968;BME280;46511;53.148;8.204;2022-07-06T05:02:38;102330.38;;;17.16;82.76
48968;BME280;46511;53.148;8.204;2022-07-06T05:05:05;102330.69;;;16.96;83.74
48968;BME280;46511;53.148;8.204;2022-07-06T05:07:32;102324.00;;;17.47;81.93
48968;BME280;46511;53.148;8.204;2022-07-06T05:10:00;102337.19;;;17.66;80.56
48968;BME280;46511;53.148;8.204;2022-07-06T05:12:29;102333.56;;;17.95;79.37
48968;BME280;46511;53.148;8.204;2022-07-06T05:14:56;102336.34;;;17.94;79.00
48968;BME280;46511;53.148;8.204;2022-07-06T05:17:25;102329.94;;;17.52;80.07
48968;BME280;46511;53.148;8.204;2022-07-06T05:19:53;102328.53;;;17.47;81.00
48968;BME280;46511;53.148;8.204;2022-07-06T05:22:22;102339.25;;;17.91;78.39
48968;BME280;46511;53.148;8.204;2022-07-06T05:24:51;102335.94;;;17.72;78.63
48968;BME280;46511;53.148;8.204;2022-07-06T05:27:18;102333.19;;;17.73;79.25
48968;BME280;46511;53.148;8.204;2022-07-06T05:29:45;102332.34;;;18.28;76.78
48968;BME280;46511;53.148;8.204;2022-07-06T05:32:15;102337.34;;;18.48;76.56
48968;BME280;46511;53.148;8.204;2022-07-06T05:34:42;102337.19;;;18.23;76.95
48968;BME280;46511;53.148;8.204;2022-07-06T05:37:09;102339.66;;;18.40;75.74
48968;BME280;46511;53.148;8.204;2022-07-06T05:39:38;102339.66;;;18.94;74.78
48968;BME280;46511;53.148;8.204;2022-07-06T05:42:14;102340.84;;;19.17;73.04
48968;BME280;46511;53.148;8.204;2022-07-06T05:44:42;102345.34;;;19.17;73.36
48968;BME280;46511;53.148;8.204;2022-07-06T05:47:08;102350.13;;;19.26;72.84
48968;BME280;46511;53.148;8.204;2022-07-06T05:49:54;102348.66;;;18.68;73.97
48968;BME280;46511;53.148;8.204;2022-07-06T05:52:43;102352.63;;;19.02;72.83
48968;BME280;46511;53.148;8.204;2022-07-06T05:55:21;102347.53;;;19.37;73.02
48968;BME280;46511;53.148;8.204;2022-07-06T05:57:48;102345.41;;;19.80;69.49
48968;BME280;46511;53.148;8.204;2022-07-06T06:00:16;102349.16;;;18.87;71.19
48968;BME280;46511;53.148;8.204;2022-07-06T06:02:43;102348.72;;;18.93;71.89
48968;BME280;46511;53.148;8.204;2022-07-06T06:05:11;102351.16;;;19.10;72.11
48968;BME280;46511;53.148;8.204;2022-07-06T06:07:44;102351.13;;;18.56;71.84
48968;BME280;46511;53.148;8.204;2022-07-06T06:10:20;102357.63;;;18.81;70.09
48968;BME280;46511;53.148;8.204;2022-07-06T06:17:07;102355.31;;;19.02;70.41
48968;BME280;46511;53.148;8.204;2022-07-06T06:20:29;102350.38;;;19.86;67.16
48968;BME280;46511;53.148;8.204;2022-07-06T06:22:56;102357.94;;;19.68;67.48
48968;BME280;46511;53.148;8.204;2022-07-06T06:32:06;102352.50;;;20.07;63.38
48968;BME280;46511;53.148;8.204;2022-07-06T06:35:30;102356.31;;;20.53;61.97
48968;BME280;46511;53.148;8.204;2022-07-06T06:37:56;102356.13;;;20.44;61.82
48968;BME280;46511;53.148;8.204;2022-07-06T06:40:23;102350.75;;;20.92;59.37
48968;BME280;46511;53.148;8.204;2022-07-06T06:42:50;102355.88;;;20.83;59.17
48968;BME280;46511;53.148;8.204;2022-07-06T06:45:16;102361.28;;;20.83;59.37
48968;BME280;46511;53.148;8.204;2022-07-06T06:47:43;102361.81;;;21.59;57.32
48968;BME280;46511;53.148;8.204;2022-07-06T06:50:14;102364.91;;;21.77;56.70
48968;BME280;46511;53.148;8.204;2022-07-06T06:52:41;102373.59;;;21.58;57.11
48968;BME280;46511;53.148;8.204;2022-07-06T06:55:12;102369.03;;;21.36;56.83
48968;BME280;46511;53.148;8.204;2022-07-06T06:57:43;102369.97;;;21.70;56.39
48968;BME280;46511;53.148;8.204;2022-07-06T07:00:15;102369.28;;;22.13;54.47
48968;BME280;46511;53.148;8.204;2022-07-06T07:02:47;102381.78;;;22.03;55.81
48968;BME280;46511;53.148;8.204;2022-07-06T07:05:18;102376.16;;;22.17;55.41
48968;BME280;46511;53.148;8.204;2022-07-06T07:07:50;102376.63;;;22.44;52.63
48968;BME280;46511;53.148;8.204;2022-07-06T07:10:21;102382.50;;;21.71;55.00
48968;BME280;46511;53.148;8.204;2022-07-06T07:12:52;102380.06;;;21.90;52.55
48968;BME280;46511;53.148;8.204;2022-07-06T07:15:24;102377.56;;;21.65;52.35
48968;BME280;46511;53.148;8.204;2022-07-06T07:17:55;102382.50;;;21.71;53.05
48968;BME280;46511;53.148;8.204;2022-07-06T07:20:27;102386.22;;;22.26;52.94
48968;BME280;46511;53.148;8.204;2022-07-06T07:23:00;102387.09;;;23.03;50.46
48968;BME280;46511;53.148;8.204;2022-07-06T07:25:32;102385.50;;;23.75;47.75
48968;BME280;46511;53.148;8.204;2022-07-06T07:28:39;102392.25;;;23.80;47.35
48968;BME280;46511;53.148;8.204;2022-07-06T07:31:14;102389.44;;;23.29;48.22
48968;BME280;46511;53.148;8.204;2022-07-06T07:34:15;102392.44;;;23.68;46.59
48968;BME280;46511;53.148;8.204;2022-07-06T07:39:55;102392.88;;;22.33;50.08
48968;BME280;46511;53.148;8.204;2022-07-06T07:42:27;102394.06;;;21.95;51.58
48968;BME280;46511;53.148;8.204;2022-07-06T07:45:10;102382.00;;;22.67;50.48
48968;BME280;46511;53.148;8.204;2022-07-06T07:47:38;102386.47;;;22.34;51.10
48968;BME280;46511;53.148;8.204;2022-07-06T07:50:10;102380.09;;;22.24;52.20
48968;BME280;46511;53.148;8.204;2022-07-06T07:52:41;102391.31;;;22.08;52.12
48968;BME280;46511;53.148;8.204;2022-07-06T07:55:13;102390.13;;;21.88;51.83
48968;BME280;46511;53.148;8.204;2022-07-06T07:57:44;102385.75;;;20.93;55.11
48968;BME280;46511;53.148;8.204;2022-07-06T08:00:16;102391.41;;;20.90;56.36
48968;BME280;46511;53.148;8.204;2022-07-06T08:02:47;102396.72;;;19.53;60.87
48968;BME280;46511;53.148;8.204;2022-07-06T08:05:19;102399.13;;;18.91;64.33
48968;BME280;46511;53.148;8.204;2022-07-06T08:07:50;102405.94;;;18.70;67.00
48968;BME280;46511;53.148;8.204;2022-07-06T08:10:22;102409.03;;;18.35;68.84
48968;BME280;46511;53.148;8.204;2022-07-06T08:12:53;102412.69;;;18.34;68.04
48968;BME280;46511;53.148;8.204;2022-07-06T08:15:24;102407.09;;;18.51;67.61
48968;BME280;46511;53.148;8.204;2022-07-06T08:17:51;102401.66;;;18.39;68.46
48968;BME280;46511;53.148;8.204;2022-07-06T08:20:22;102410.94;;;18.47;67.52
48968;BME280;46511;53.148;8.204;2022-07-06T08:22:53;102401.69;;;18.80;64.21
48968;BME280;46511;53.148;8.204;2022-07-06T08:25:25;102406.47;;;18.89;62.81
48968;BME280;46511;53.148;8.204;2022-07-06T08:27:56;102408.91;;;19.06;62.67
48968;BME280;46511;53.148;8.204;2022-07-06T08:30:28;102415.97;;;19.61;61.12
48968;BME280;46511;53.148;8.204;2022-07-06T08:33:02;102418.22;;;19.67;60.41
48968;BME280;46511;53.148;8.204;2022-07-06T08:35:28;102417.13;;;19.57;60.06
48968;BME280;46511;53.148;8.204;2022-07-06T08:38:00;102416.16;;;20.35;58.82
48968;BME280;46511;53.148;8.204;2022-07-06T08:40:32;102411.72;;;20.46;56.93
48968;BME280;46511;53.148;8.204;2022-07-06T08:43:06;102409.63;;;21.23;54.41
48968;BME280;46511;53.148;8.204;2022-07-06T08:45:37;102406.28;;;22.01;52.43
48968;BME280;46511;53.148;8.204;2022-07-06T08:48:07;102406.81;;;23.05;48.63
48968;BME280;46511;53.148;8.204;2022-07-06T08:50:38;102405.69;;;24.93;44.02
48968;BME280;46511;53.148;8.204;2022-07-06T08:53:10;102404.25;;;24.89;42.85
48968;BME280;46511;53.148;8.204;2022-07-06T08:55:36;102401.97;;;25.71;41.59
48968;BME280;46511;53.148;8.204;2022-07-06T08:58:08;102398.91;;;26.86;38.10
48968;BME280;46511;53.148;8.204;2022-07-06T09:00:39;102389.81;;;26.12;39.20
48968;BME280;46511;53.148;8.204;2022-07-06T09:03:12;102387.66;;;26.16;39.97
48968;BME280;46511;53.148;8.204;2022-07-06T09:05:45;102386.81;;;26.33;39.19
48968;BME280;46511;53.148;8.204;2022-07-06T09:08:18;102390.88;;;26.29;38.74
48968;BME280;46511;53.148;8.204;2022-07-06T09:10:50;102384.78;;;25.61;39.90
48968;BME280;46511;53.148;8.204;2022-07-06T09:13:21;102400.41;;;25.20;41.49
48968;BME280;46511;53.148;8.204;2022-07-06T09:15:53;102399.72;;;25.09;42.57
48968;BME280;46511;53.148;8.204;2022-07-06T09:18:24;102399.06;;;23.54;45.47
48968;BME280;46511;53.148;8.204;2022-07-06T09:20:51;102405.31;;;23.96;45.08
48968;BME280;46511;53.148;8.204;2022-07-06T09:23:17;102398.91;;;24.58;42.80
48968;BME280;46511;53.148;8.204;2022-07-06T09:25:48;102402.53;;;24.07;43.33
48968;BME280;46511;53.148;8.204;2022-07-06T09:28:20;102400.16;;;24.23;41.81
48968;BME280;46511;53.148;8.204;2022-07-06T09:30:54;102398.66;;;24.00;44.04
48968;BME280;46511;53.148;8.204;2022-07-06T09:33:26;102404.78;;;23.40;44.72
48968;BME280;46511;53.148;8.204;2022-07-06T09:35:57;102405.22;;;23.77;44.79
48968;BME280;46511;53.148;8.204;2022-07-06T09:38:33;102405.31;;;23.96;43.60
48968;BME280;46511;53.148;8.204;2022-07-06T09:41:04;102398.44;;;23.29;45.98
48968;BME280;46511;53.148;8.204;2022-07-06T09:43:35;102400.97;;;22.44;47.76
48968;BME280;46511;53.148;8.204;2022-07-06T09:46:07;102401.00;;;22.11;49.49
48968;BME280;46511;53.148;8.204;2022-07-06T09:48:40;102412.94;;;20.30;53.66
48968;BME280;46511;53.148;8.204;2022-07-06T09:51:12;102416.22;;;19.44;58.17
48968;BME280;46511;53.148;8.204;2022-07-06T09:53:50;102428.66;;;19.59;58.61
48968;BME280;46511;53.148;8.204;2022-07-06T09:56:22;102419.13;;;19.81;58.47
48968;BME280;46511;53.148;8.204;2022-07-06T10:01:39;102421.56;;;19.58;59.29
48968;BME280;46511;53.148;8.204;2022-07-06T10:04:07;102420.16;;;20.16;57.52
48968;BME280;46511;53.148;8.204;2022-07-06T10:06:40;102418.41;;;20.53;56.84
48968;BME280;46511;53.148;8.204;2022-07-06T10:09:08;102409.03;;;21.07;54.78
48968;BME280;46511;53.148;8.204;2022-07-06T10:11:42;102408.19;;;21.77;53.56
48968;BME280;46511;53.148;8.204;2022-07-06T10:14:22;102405.81;;;22.41;50.04
48968;BME280;46511;53.148;8.204;2022-07-06T10:16:56;102408.69;;;23.26;48.03
48968;BME280;46511;53.148;8.204;2022-07-06T10:19:30;102404.41;;;23.86;45.85
48968;BME280;46511;53.148;8.204;2022-07-06T10:22:02;102416.34;;;23.74;45.18
48968;BME280;46511;53.148;8.204;2022-07-06T10:24:38;102402.38;;;24.79;43.16
48968;BME280;46511;53.148;8.204;2022-07-06T10:27:14;102404.13;;;25.48;40.78
48968;BME280;46511;53.148;8.204;2022-07-06T10:29:46;102406.88;;;26.05;40.46
48968;BME280;46511;53.148;8.204;2022-07-06T10:32:18;102395.44;;;28.33;34.68
48968;BME280;46511;53.148;8.204;2022-07-06T10:34:51;102394.19;;;30.94;29.51
48968;BME280;46511;53.148;8.204;2022-07-06T10:37:27;102389.50;;;34.02;28.02
48968;BME280;46511;53.148;8.204;2022-07-06T10:39:59;102378.28;;;32.18;26.91
48968;BME280;46511;53.148;8.204;2022-07-06T10:42:45;102388.00;;;31.15;30.42
48968;BME280;46511;53.148;8.204;2022-07-06T10:53:10;102377.41;;;28.48;33.23
48968;BME280;46511;53.148;8.204;2022-07-06T10:55:46;102373.50;;;28.16;33.02
48968;BME280;46511;53.148;8.204;2022-07-06T10:59:04;102374.78;;;27.96;35.53
48968;BME280;46511;53.148;8.204;2022-07-06T11:01:11;102360.44;;;28.02;32.66
48968;BME280;46511;53.148;8.204;2022-07-06T11:03:44;102368.03;;;27.65;34.22
48968;BME280;46511;53.148;8.204;2022-07-06T11:06:18;102367.78;;;27.68;33.28
48968;BME280;46511;53.148;8.204;2022-07-06T11:08:55;102350.94;;;27.80;31.94
48968;BME280;46511;53.148;8.204;2022-07-06T11:14:07;102368.28;;;27.10;33.66
48968;BME280;46511;53.148;8.204;2022-07-06T11:19:17;102357.66;;;25.88;37.04
48968;BME280;46511;53.148;8.204;2022-07-06T11:21:51;102362.38;;;27.84;34.44
48968;BME280;46511;53.148;8.204;2022-07-06T11:24:19;102358.53;;;26.89;35.05
48968;BME280;46511;53.148;8.204;2022-07-06T11:26:52;102359.44;;;26.62;36.59
48968;BME280;46511;53.148;8.204;2022-07-06T11:29:26;102362.53;;;26.22;37.74
48968;BME280;46511;53.148;8.204;2022-07-06T11:31:59;102354.47;;;25.37;39.13
48968;BME280;46511;53.148;8.204;2022-07-06T11:34:32;102350.41;;;24.13;42.53
48968;BME280;46511;53.148;8.204;2022-07-06T11:37:06;102349.03;;;27.73;36.46
48968;BME280;46511;53.148;8.204;2022-07-06T11:39:42;102345.09;;;29.98;32.43
48968;BME280;46511;53.148;8.204;2022-07-06T11:42:15;102337.31;;;32.23;27.90
48968;BME280;46511;53.148;8.204;2022-07-06T11:44:48;102329.78;;;30.51;28.36
48968;BME280;46511;53.148;8.204;2022-07-06T11:47:16;102338.63;;;31.68;27.84
48968;BME280;46511;53.148;8.204;2022-07-06T11:49:49;102330.47;;;31.60;27.63
48968;BME280;46511;53.148;8.204;2022-07-06T11:52:21;102332.50;;;31.66;27.23
48968;BME280;46511;53.148;8.204;2022-07-06T11:54:57;102334.84;;;31.69;26.43
48968;BME280;46511;53.148;8.204;2022-07-06T11:57:26;102322.97;;;30.16;27.91
48968;BME280;46511;53.148;8.204;2022-07-06T12:00:03;102317.38;;;32.21;26.10
48968;BME280;46511;53.148;8.204;2022-07-06T12:02:35;102318.81;;;33.10;25.17
48968;BME280;46511;53.148;8.204;2022-07-06T12:05:06;102328.00;;;31.50;25.82
48968;BME280;46511;53.148;8.204;2022-07-06T12:07:38;102329.44;;;30.54;26.34
48968;BME280;46511;53.148;8.204;2022-07-06T12:10:09;102331.53;;;30.52;27.96
48968;BME280;46511;53.148;8.204;2022-07-06T12:12:41;102323.13;;;27.77;30.96
48968;BME280;46511;53.148;8.204;2022-07-06T12:15:12;102327.72;;;26.43;32.28
48968;BME280;46511;53.148;8.204;2022-07-06T12:17:47;102329.72;;;27.04;31.56
48968;BME280;46511;53.148;8.204;2022-07-06T12:20:14;102316.31;;;30.73;27.64
48968;BME280;46511;53.148;8.204;2022-07-06T12:22:45;102302.19;;;32.03;25.41
48968;BME280;46511;53.148;8.204;2022-07-06T12:25:32;102305.75;;;33.81;23.77
48968;BME280;46511;53.148;8.204;2022-07-06T12:28:04;102302.97;;;32.19;24.82
48968;BME280;46511;53.148;8.204;2022-07-06T12:30:31;102302.41;;;29.65;27.35
48968;BME280;46511;53.148;8.204;2022-07-06T12:33:13;102298.72;;;30.59;27.68
48968;BME280;46511;53.148;8.204;2022-07-06T12:35:51;102297.59;;;30.76;23.43
48968;BME280;46511;53.148;8.204;2022-07-06T12:38:24;102290.59;;;31.11;21.82
48968;BME280;46511;53.148;8.204;2022-07-06T12:40:53;102275.97;;;32.22;21.68
48968;BME280;46511;53.148;8.204;2022-07-06T12:43:40;102289.72;;;30.96;22.26
48968;BME280;46511;53.148;8.204;2022-07-06T12:46:23;102277.34;;;31.82;23.42
48968;BME280;46511;53.148;8.204;2022-07-06T12:49:03;102280.25;;;30.53;25.69
48968;BME280;46511;53.148;8.204;2022-07-06T12:52:29;102277.53;;;32.46;23.09
48968;BME280;46511;53.148;8.204;2022-07-06T12:54:45;102278.44;;;32.96;23.64
48968;BME280;46511;53.148;8.204;2022-07-06T12:59:46;102292.19;;;28.10;27.63
48968;BME280;46511;53.148;8.204;2022-07-06T13:02:30;102292.28;;;30.52;25.10
48968;BME280;46511;53.148;8.204;2022-07-06T13:05:05;102282.75;;;33.05;22.76
48968;BME280;46511;53.148;8.204;2022-07-06T13:07:34;102272.63;;;33.68;22.17
48968;BME280;46511;53.148;8.204;2022-07-06T13:10:03;102271.25;;;34.47;20.23
48968;BME280;46511;53.148;8.204;2022-07-06T13:12:36;102266.44;;;34.01;22.60
48968;BME280;46511;53.148;8.204;2022-07-06T13:15:08;102276.53;;;32.96;22.09
48968;BME280;46511;53.148;8.204;2022-07-06T13:17:40;102274.31;;;33.69;21.02
48968;BME280;46511;53.148;8.204;2022-07-06T13:20:08;102280.84;;;33.62;21.01
48968;BME280;46511;53.148;8.204;2022-07-06T13:22:41;102269.88;;;32.84;22.24
48968;BME280;46511;53.148;8.204;2022-07-06T13:25:08;102262.06;;;31.35;23.27
48968;BME280;46511;53.148;8.204;2022-07-06T13:27:34;102280.53;;;29.56;25.45
48968;BME280;46511;53.148;8.204;2022-07-06T13:30:06;102272.44;;;30.41;26.35
48968;BME280;46511;53.148;8.204;2022-07-06T13:32:38;102271.66;;;30.56;24.25
48968;BME280;46511;53.148;8.204;2022-07-06T13:35:05;102283.47;;;31.54;23.07
48968;BME280;46511;53.148;8.204;2022-07-06T13:37:37;102275.75;;;29.50;25.98
48968;BME280;46511;53.148;8.204;2022-07-06T13:40:08;102288.97;;;26.50;30.14
48968;BME280;46511;53.148;8.204;2022-07-06T13:42:40;102287.50;;;26.55;30.31
48968;BME280;46511;53.148;8.204;2022-07-06T13:45:11;102279.50;;;26.26;30.62
48968;BME280;46511;53.148;8.204;2022-07-06T13:47:38;102284.16;;;26.16;32.24